Time;durP1;ratioP1;P1;durP2;ratioP2;P2;SDS_P1;SDS_P2;PMS_P1;PMS_P2;Temp;Humidity;BMP_temperature;BMP_pressure;BME280_temperature;BME280_humidity;BME280_pressure;Samples;Min_cycle;Max_cycle;Signal;HPM_P1;HPM_P2
2020/12/20 00:00:35;;;;;;;6.90;5.40;;;12.40;50.10;;;;;;5007393;28;20562;-42
2020/12/20 00:03:01;;;;;;;8.57;5.10;;;12.20;50.10;;;;;;5006475;28;21046;-42
2020/12/20 00:05:27;;;;;;;7.27;5.20;;;12.50;50.60;;;;;;5005141;28;20190;-42
2020/12/20 00:07:53;;;;;;;6.77;5.27;;;12.90;50.10;;;;;;5006836;28;20233;-42
2020/12/20 00:10:21;;;;;;;6.47;5.40;;;13.10;49.60;;;;;;5015913;28;20448;-42
2020/12/20 00:12:47;;;;;;;7.43;5.30;;;13.10;48.70;;;;;;5006043;28;20817;-42
2020/12/20 00:15:14;;;;;;;7.60;5.40;;;13.00;49.00;;;;;;5005966;28;20485;-42
2020/12/20 00:17:39;;;;;;;6.43;5.73;;;13.10;49.30;;;;;;5009105;28;20202;-42
2020/12/20 00:20:08;;;;;;;7.70;6.27;;;13.20;48.50;;;;;;5007076;28;21019;-42
2020/12/20 00:22:34;;;;;;;7.53;5.40;;;13.40;48.30;;;;;;5007363;28;20568;-42
2020/12/20 00:25:00;;;;;;;9.57;5.50;;;13.50;48.30;;;;;;5006905;28;20536;-42
2020/12/20 00:27:25;;;;;;;7.33;4.67;;;13.40;48.50;;;;;;5007261;28;21063;-42
2020/12/20 00:29:51;;;;;;;6.63;5.67;;;13.50;48.60;;;;;;5014126;28;20212;-42
2020/12/20 00:32:18;;;;;;;7.50;6.23;;;13.30;47.40;;;;;;5013822;28;20448;-42
2020/12/20 00:34:44;;;;;;;7.50;6.07;;;13.30;48.00;;;;;;5009093;28;20484;-42
2020/12/20 00:37:09;;;;;;;8.30;6.47;;;12.90;48.20;;;;;;5012817;28;20471;-42
2020/12/20 00:39:35;;;;;;;7.00;5.90;;;12.80;49.00;;;;;;5007543;28;20677;-41
2020/12/20 00:42:04;;;;;;;6.97;5.73;;;12.60;49.40;;;;;;5008651;28;20661;-42
2020/12/20 00:44:30;;;;;;;6.90;5.40;;;12.60;49.30;;;;;;5007444;28;20470;-42
2020/12/20 00:46:57;;;;;;;7.20;6.13;;;12.60;49.40;;;;;;5006124;28;20493;-42
2020/12/20 00:49:24;;;;;;;6.60;5.90;;;12.40;49.90;;;;;;5003113;28;20478;-42
2020/12/20 00:51:50;;;;;;;6.13;5.40;;;12.20;50.30;;;;;;5010023;28;20459;-42
2020/12/20 00:54:15;;;;;;;6.07;4.97;;;12.10;50.50;;;;;;5004695;28;20448;-42
2020/12/20 00:56:42;;;;;;;6.33;5.10;;;11.80;51.50;;;;;;5004383;28;20236;-42
2020/12/20 00:59:07;;;;;;;6.40;5.80;;;11.80;51.70;;;;;;5007311;28;20293;-42
2020/12/20 01:01:33;;;;;;;6.07;5.47;;;11.90;51.50;;;;;;5007839;28;20476;-42
2020/12/20 01:03:58;;;;;;;10.27;5.90;;;11.80;51.30;;;;;;5004089;28;20209;-42
2020/12/20 01:06:25;;;;;;;7.20;5.30;;;11.80;51.70;;;;;;5004574;28;20198;-42
2020/12/20 01:08:51;;;;;;;5.87;5.27;;;11.80;51.90;;;;;;5005529;28;20198;-42
2020/12/20 01:11:18;;;;;;;6.80;6.10;;;11.80;51.90;;;;;;5005756;28;20468;-41
2020/12/20 01:13:52;;;;;;;7.10;5.70;;;11.80;51.90;;;;;;5008120;28;20459;-42
2020/12/20 01:16:25;;;;;;;6.63;5.40;;;11.70;51.90;;;;;;5003636;28;20484;-42
2020/12/20 01:18:55;;;;;;;6.60;6.00;;;11.80;51.90;;;;;;5008321;28;20813;-42
2020/12/20 01:21:20;;;;;;;6.67;6.07;;;11.70;52.20;;;;;;5007651;28;20530;-41
2020/12/20 01:23:46;;;;;;;7.77;6.30;;;11.70;52.00;;;;;;5008379;28;20535;-42
2020/12/20 01:26:12;;;;;;;7.00;5.67;;;11.70;51.80;;;;;;5004889;28;20193;-42
2020/12/20 01:28:38;;;;;;;5.77;5.17;;;11.70;51.80;;;;;;5007809;28;20697;-42
2020/12/20 01:31:05;;;;;;;6.17;5.67;;;11.50;52.00;;;;;;5008671;28;20650;-42
2020/12/20 01:33:32;;;;;;;6.77;5.40;;;11.50;52.20;;;;;;5007945;28;20190;-42
2020/12/20 01:35:57;;;;;;;5.63;5.03;;;11.50;52.50;;;;;;5007288;28;20539;-42
2020/12/20 01:38:23;;;;;;;6.23;5.63;;;11.70;52.00;;;;;;5007017;28;20476;-42
2020/12/20 01:40:52;;;;;;;5.80;5.20;;;11.50;51.50;;;;;;5005444;28;20200;-42
2020/12/20 01:43:18;;;;;;;5.77;5.27;;;11.40;52.10;;;;;;5008010;28;20194;-42
2020/12/20 01:45:43;;;;;;;7.50;5.93;;;11.30;52.20;;;;;;5024678;28;20454;-41
2020/12/20 01:48:10;;;;;;;5.57;5.07;;;11.30;52.10;;;;;;5004485;28;20252;-42
2020/12/20 01:50:36;;;;;;;6.13;5.63;;;11.20;52.20;;;;;;5008754;28;20607;-42
2020/12/20 01:53:03;;;;;;;6.00;5.33;;;11.10;52.70;;;;;;5004927;28;20448;-41
2020/12/20 01:55:29;;;;;;;9.40;5.83;;;10.90;53.00;;;;;;5009713;28;20575;-42
2020/12/20 01:57:55;;;;;;;5.97;5.40;;;11.10;52.80;;;;;;5006877;28;20559;-41
2020/12/20 02:00:21;;;;;;;7.00;5.47;;;11.20;52.70;;;;;;5023210;28;20239;-42
2020/12/20 02:02:47;;;;;;;7.03;5.40;;;11.40;52.50;;;;;;5010939;28;20471;-42
2020/12/20 02:05:12;;;;;;;6.27;5.00;;;11.40;52.10;;;;;;5011530;28;20449;-42
2020/12/20 02:07:38;;;;;;;6.53;4.97;;;11.20;52.20;;;;;;5011956;28;20190;-41
2020/12/20 02:10:04;;;;;;;6.37;5.50;;;11.10;52.40;;;;;;5008928;28;20216;-41
2020/12/20 02:12:30;;;;;;;6.10;5.50;;;11.10;52.70;;;;;;5009277;28;20202;-42
2020/12/20 02:14:56;;;;;;;5.73;5.23;;;11.20;52.60;;;;;;5012710;28;20492;-41
2020/12/20 02:17:22;;;;;;;5.97;4.83;;;11.20;52.60;;;;;;5007949;28;20201;-42
2020/12/20 02:19:48;;;;;;;6.83;5.87;;;11.30;52.70;;;;;;5012958;28;20429;-42
2020/12/20 02:22:14;;;;;;;6.50;5.90;;;11.50;52.30;;;;;;5011618;28;20201;-42
2020/12/20 02:24:40;;;;;;;5.83;5.30;;;11.40;52.40;;;;;;5008937;28;20229;-42
2020/12/20 02:27:06;;;;;;;6.33;5.73;;;11.20;52.70;;;;;;5012133;28;20452;-41
2020/12/20 02:29:33;;;;;;;7.60;6.10;;;11.20;53.20;;;;;;5012675;28;20205;-42
2020/12/20 02:31:59;;;;;;;6.93;6.03;;;11.30;52.90;;;;;;5014906;28;20456;-41
2020/12/20 02:34:25;;;;;;;10.03;5.27;;;11.30;52.60;;;;;;5008939;28;20445;-41
2020/12/20 02:36:51;;;;;;;6.70;5.27;;;11.20;52.80;;;;;;5012095;28;20202;-42
2020/12/20 02:39:17;;;;;;;7.93;5.90;;;11.20;53.00;;;;;;5007872;28;20449;-42
2020/12/20 02:41:43;;;;;;;6.53;5.63;;;11.30;52.80;;;;;;5007705;28;20213;-42
2020/12/20 02:44:08;;;;;;;6.33;5.77;;;11.20;53.00;;;;;;5009054;28;20476;-42
2020/12/20 02:46:34;;;;;;;5.57;5.07;;;11.10;53.20;;;;;;5005492;28;20440;-42
2020/12/20 02:49:00;;;;;;;7.20;6.50;;;11.10;53.50;;;;;;5004614;28;20237;-42
2020/12/20 02:51:27;;;;;;;8.37;5.27;;;11.00;53.50;;;;;;5009059;28;20208;-41
2020/12/20 02:53:52;;;;;;;6.17;5.57;;;11.00;53.50;;;;;;5009746;28;20782;-42
2020/12/20 02:56:19;;;;;;;6.90;5.40;;;10.90;53.40;;;;;;5008019;28;20484;-42
2020/12/20 02:58:46;;;;;;;5.70;5.10;;;10.80;53.70;;;;;;5009099;28;20194;-42
2020/12/20 03:01:12;;;;;;;6.50;5.53;;;11.00;53.50;;;;;;5003487;28;20475;-42
2020/12/20 03:03:37;;;;;;;7.07;5.90;;;11.10;53.20;;;;;;5003927;28;20445;-41
2020/12/20 03:06:03;;;;;;;6.43;5.30;;;11.10;52.90;;;;;;5009828;28;20198;-42
2020/12/20 03:08:28;;;;;;;6.87;5.70;;;11.10;53.00;;;;;;5010843;28;20209;-42
2020/12/20 03:10:54;;;;;;;5.97;5.37;;;10.90;53.10;;;;;;5008376;28;21203;-42
2020/12/20 03:13:20;;;;;;;5.80;4.80;;;11.10;53.20;;;;;;5001959;28;20205;-41
2020/12/20 03:15:45;;;;;;;6.00;5.13;;;11.00;53.00;;;;;;5006487;28;20240;-41
2020/12/20 03:18:11;;;;;;;6.07;5.50;;;10.90;53.10;;;;;;5007084;28;20206;-41
2020/12/20 03:20:36;;;;;;;5.73;5.23;;;10.90;53.60;;;;;;5010357;28;20202;-41
2020/12/20 03:23:04;;;;;;;6.63;5.90;;;11.10;53.10;;;;;;5010048;28;20201;-42
2020/12/20 03:25:30;;;;;;;6.30;5.63;;;11.10;53.00;;;;;;5007114;28;20250;-42
2020/12/20 03:27:56;;;;;;;5.67;5.17;;;11.30;52.70;;;;;;5005687;28;20591;-42
2020/12/20 03:30:22;;;;;;;6.00;5.50;;;11.20;52.60;;;;;;5006944;28;20503;-41
2020/12/20 03:32:48;;;;;;;5.93;5.33;;;11.20;52.50;;;;;;5010491;28;20258;-42
2020/12/20 03:35:14;;;;;;;7.33;5.57;;;11.30;52.50;;;;;;5004992;28;20741;-41
2020/12/20 03:37:48;;;;;;;6.07;5.00;;;11.40;52.90;;;;;;5009542;28;20429;-41
2020/12/20 03:40:14;;;;;;;5.63;5.07;;;11.40;52.40;;;;;;5006983;28;20193;-41
2020/12/20 03:42:39;;;;;;;8.13;5.60;;;11.30;52.20;;;;;;5008788;28;20448;-42
2020/12/20 03:45:05;;;;;;;5.30;4.80;;;11.20;52.60;;;;;;5009733;28;20190;-42
2020/12/20 03:47:31;;;;;;;6.50;5.27;;;11.20;52.60;;;;;;5009108;28;20193;-41
2020/12/20 03:49:56;;;;;;;6.07;4.67;;;11.30;52.50;;;;;;5006669;28;20685;-42
2020/12/20 03:52:22;;;;;;;5.70;4.73;;;11.20;52.70;;;;;;5012206;28;20667;-41
2020/12/20 03:54:47;;;;;;;5.07;4.40;;;11.40;52.70;;;;;;5010502;28;20787;-42
2020/12/20 03:57:13;;;;;;;6.40;5.33;;;11.40;52.50;;;;;;5007020;28;20581;-41
2020/12/20 03:59:39;;;;;;;6.27;5.67;;;11.40;52.60;;;;;;5005542;28;20305;-44
2020/12/20 04:02:04;;;;;;;7.07;5.50;;;11.40;52.60;;;;;;5006892;28;20264;-41
2020/12/20 04:04:30;;;;;;;7.33;5.00;;;11.60;52.40;;;;;;4998746;28;20448;-42
2020/12/20 04:06:55;;;;;;;6.00;5.27;;;11.60;52.40;;;;;;5006654;28;20708;-42
2020/12/20 04:09:21;;;;;;;6.73;5.23;;;11.90;52.10;;;;;;5007892;28;20657;-42
2020/12/20 04:11:47;;;;;;;4.83;4.40;;;12.00;52.40;;;;;;5009224;28;20536;-41
2020/12/20 04:14:12;;;;;;;6.23;5.60;;;12.00;52.00;;;;;;5009336;28;20194;-41
2020/12/20 04:16:38;;;;;;;6.03;5.20;;;11.90;51.90;;;;;;5006898;28;20234;-42
2020/12/20 04:19:03;;;;;;;6.40;5.57;;;12.00;51.90;;;;;;5008133;28;20671;-42
2020/12/20 04:21:29;;;;;;;5.50;5.00;;;11.90;51.70;;;;;;5010490;28;20199;-42
2020/12/20 04:23:54;;;;;;;5.97;5.37;;;12.00;51.80;;;;;;5018614;28;20233;-42
2020/12/20 04:26:20;;;;;;;6.90;5.63;;;11.90;51.60;;;;;;5009381;28;20729;-42
2020/12/20 04:28:46;;;;;;;8.93;5.27;;;12.00;51.70;;;;;;5007791;28;20225;-42
2020/12/20 04:31:11;;;;;;;6.10;5.40;;;11.80;51.70;;;;;;5007044;28;20542;-41
2020/12/20 04:33:39;;;;;;;6.10;4.80;;;11.90;52.00;;;;;;5006806;28;20264;-42
2020/12/20 04:36:06;;;;;;;7.17;4.57;;;11.90;51.80;;;;;;5015118;28;20291;-41
2020/12/20 04:38:33;;;;;;;5.40;4.90;;;11.90;51.70;;;;;;5007646;28;20451;-42
2020/12/20 04:40:58;;;;;;;5.73;5.20;;;11.90;51.60;;;;;;5006310;28;20543;-42
2020/12/20 04:43:25;;;;;;;5.20;4.70;;;11.90;51.60;;;;;;5005157;28;20524;-42
2020/12/20 04:45:53;;;;;;;5.30;4.60;;;11.80;51.50;;;;;;5006334;28;20237;-42
2020/12/20 04:48:20;;;;;;;5.83;4.97;;;11.90;51.70;;;;;;5006845;28;20842;-42
2020/12/20 04:50:47;;;;;;;6.07;5.17;;;12.00;51.60;;;;;;5009279;28;20445;-42
2020/12/20 04:53:13;;;;;;;5.73;4.97;;;12.00;51.50;;;;;;5005026;28;20444;-42
2020/12/20 04:55:39;;;;;;;5.47;4.63;;;12.00;51.60;;;;;;5004847;28;20543;-42
2020/12/20 04:58:05;;;;;;;6.30;5.43;;;12.00;51.60;;;;;;5006127;28;20813;-41
2020/12/20 05:00:31;;;;;;;6.00;5.20;;;12.10;51.60;;;;;;5006702;28;20285;-41
2020/12/20 05:02:57;;;;;;;8.40;5.33;;;12.10;51.50;;;;;;5005463;28;20650;-42
2020/12/20 05:05:23;;;;;;;6.33;5.57;;;12.30;51.30;;;;;;5011903;28;20940;-42
2020/12/20 05:07:49;;;;;;;5.47;4.80;;;12.10;50.80;;;;;;5017845;28;20519;-41
2020/12/20 05:10:15;;;;;;;5.10;4.67;;;12.10;51.20;;;;;;5001034;28;20320;-42
2020/12/20 05:12:41;;;;;;;5.37;4.87;;;12.00;51.30;;;;;;5004531;28;20579;-42
2020/12/20 05:15:24;;;;;;;5.40;4.87;;;11.90;51.60;;;;;;5007948;28;20218;-41
2020/12/20 05:18:07;;;;;;;6.10;4.70;;;11.90;51.90;;;;;;5006449;28;20202;-42
2020/12/20 05:20:42;;;;;;;6.10;5.60;;;11.60;52.20;;;;;;5009598;28;20463;-42
2020/12/20 05:23:09;;;;;;;4.60;4.17;;;11.60;52.40;;;;;;5006524;28;20509;-42
2020/12/20 05:25:36;;;;;;;7.50;5.60;;;11.60;52.60;;;;;;5005831;28;20449;-41
2020/12/20 05:28:19;;;;;;;6.30;5.03;;;11.60;52.70;;;;;;5005215;28;20538;-42
2020/12/20 05:30:46;;;;;;;5.90;4.40;;;11.70;52.50;;;;;;5009555;28;20470;-42
2020/12/20 05:33:26;;;;;;;6.83;5.27;;;11.70;52.50;;;;;;5010841;28;20443;-42
2020/12/20 05:36:06;;;;;;;5.80;5.20;;;11.60;52.30;;;;;;5010025;28;20492;-42
2020/12/20 05:38:34;;;;;;;5.93;5.00;;;11.60;52.50;;;;;;5009479;28;20449;-42
2020/12/20 05:41:00;;;;;;;5.73;5.10;;;11.60;52.70;;;;;;5013660;28;20481;-42
2020/12/20 05:43:27;;;;;;;7.70;5.27;;;11.70;52.50;;;;;;5007361;28;20831;-42
2020/12/20 05:45:54;;;;;;;6.27;5.67;;;11.70;52.50;;;;;;5010170;28;20436;-42
2020/12/20 05:48:24;;;;;;;6.20;4.90;;;11.60;52.40;;;;;;5008470;28;20483;-42
2020/12/20 05:50:56;;;;;;;6.77;6.10;;;11.50;52.70;;;;;;5013028;28;20527;-41
2020/12/20 05:53:27;;;;;;;4.87;4.37;;;11.50;52.80;;;;;;5006468;28;20546;-41
2020/12/20 05:55:57;;;;;;;6.73;6.13;;;11.40;52.90;;;;;;5005696;28;20579;-41
2020/12/20 05:58:25;;;;;;;5.33;4.83;;;11.50;52.80;;;;;;5009329;28;20662;-42
2020/12/20 06:00:50;;;;;;;5.23;4.57;;;11.70;52.70;;;;;;5003667;28;20445;-42
2020/12/20 06:03:16;;;;;;;4.60;4.20;;;11.80;52.30;;;;;;5022812;28;20961;-42
2020/12/20 06:05:44;;;;;;;6.10;5.50;;;11.80;51.90;;;;;;5010932;28;20594;-42
2020/12/20 06:08:13;;;;;;;6.17;5.07;;;11.60;52.70;;;;;;5007765;28;20445;-41
2020/12/20 06:10:45;;;;;;;6.40;4.67;;;11.30;52.70;;;;;;5008777;28;20445;-42
2020/12/20 06:13:19;;;;;;;5.73;5.13;;;11.30;53.10;;;;;;5005283;28;20444;-42
2020/12/20 06:15:50;;;;;;;5.50;3.73;;;11.30;53.20;;;;;;5005845;28;20545;-42
2020/12/20 06:18:23;;;;;;;7.53;5.37;;;11.20;55.30;;;;;;5012823;28;20453;-42
2020/12/20 06:20:54;;;;;;;5.70;4.50;;;11.50;55.10;;;;;;5009136;28;20459;-42
2020/12/20 06:23:28;;;;;;;4.50;4.10;;;11.80;54.30;;;;;;5007604;28;20452;-42
2020/12/20 06:25:55;;;;;;;17.17;5.30;;;12.00;53.80;;;;;;5010072;28;20939;-42
2020/12/20 06:28:23;;;;;;;6.13;5.00;;;12.30;52.60;;;;;;5010085;28;20586;-42
2020/12/20 06:30:49;;;;;;;7.83;4.73;;;12.60;52.70;;;;;;5008635;28;20455;-42
2020/12/20 06:33:31;;;;;;;4.87;4.37;;;12.80;51.10;;;;;;5009514;28;20448;-42
2020/12/20 06:35:57;;;;;;;6.33;5.50;;;12.90;50.90;;;;;;5008579;28;20488;-42
2020/12/20 06:38:24;;;;;;;5.63;4.93;;;13.10;50.60;;;;;;5006250;28;20453;-49
2020/12/20 06:40:51;;;;;;;6.47;4.60;;;13.20;50.00;;;;;;5005178;28;20488;-42
2020/12/20 06:43:34;;;;;;;6.57;4.90;;;13.20;50.30;;;;;;5012474;28;20441;-42
2020/12/20 06:46:01;;;;;;;5.23;4.70;;;13.20;50.00;;;;;;5010104;28;20515;-42
2020/12/20 06:48:39;;;;;;;6.27;5.63;;;13.20;49.40;;;;;;5011848;28;20475;-42
2020/12/20 06:51:07;;;;;;;8.50;6.10;;;13.00;50.20;;;;;;5001579;28;20524;-42
2020/12/20 06:54:01;;;;;;;8.13;6.00;;;13.20;50.10;;;;;;5010907;28;21317;-42
2020/12/20 06:56:27;;;;;;;8.13;6.13;;;13.30;49.80;;;;;;4999761;28;20495;-42
2020/12/20 06:58:53;;;;;;;10.50;7.07;;;13.30;49.20;;;;;;5010883;28;20432;-42
2020/12/20 07:01:39;;;;;;;10.10;6.77;;;13.10;49.80;;;;;;5010436;28;20224;-43
2020/12/20 07:04:15;;;;;;;8.00;5.53;;;13.30;49.80;;;;;;5015202;28;20514;-42
2020/12/20 07:07:01;;;;;;;6.73;5.20;;;13.20;49.30;;;;;;5010285;28;20440;-42
2020/12/20 07:09:32;;;;;;;6.50;5.33;;;13.10;49.40;;;;;;5008146;28;20449;-42
2020/12/20 07:11:58;;;;;;;6.70;4.80;;;13.10;49.70;;;;;;5010540;28;20949;-43
2020/12/20 07:14:23;;;;;;;5.80;5.30;;;13.00;49.80;;;;;;5011901;28;20432;-42
2020/12/20 07:16:50;;;;;;;6.20;5.07;;;13.00;50.10;;;;;;5014537;28;20194;-42
2020/12/20 07:19:26;;;;;;;4.87;4.40;;;13.20;49.90;;;;;;5007880;28;20728;-43
2020/12/20 07:21:52;;;;;;;5.60;4.83;;;13.20;49.70;;;;;;5008002;28;20518;-42
2020/12/20 07:24:26;;;;;;;5.10;4.70;;;13.40;49.50;;;;;;5011758;28;20920;-42
2020/12/20 07:26:56;;;;;;;5.40;4.93;;;13.30;48.70;;;;;;5013873;28;20194;-42
2020/12/20 07:29:21;;;;;;;5.77;5.20;;;12.90;49.40;;;;;;5011786;28;20524;-42
2020/12/20 07:31:52;;;;;;;5.70;5.00;;;12.80;49.80;;;;;;5015398;28;20574;-42
2020/12/20 07:34:18;;;;;;;5.53;5.07;;;12.90;49.60;;;;;;5011604;28;20284;-42
2020/12/20 07:36:44;;;;;;;5.93;5.33;;;12.60;49.90;;;;;;5009542;28;20523;-42
2020/12/20 07:39:11;;;;;;;5.53;5.03;;;12.60;50.40;;;;;;5010527;28;20285;-41
2020/12/20 07:41:36;;;;;;;6.00;5.40;;;12.20;50.80;;;;;;5010472;28;20198;-41
2020/12/20 07:44:09;;;;;;;6.17;5.57;;;12.20;51.20;;;;;;5014004;28;20440;-41
2020/12/20 07:46:36;;;;;;;5.70;5.20;;;12.00;51.60;;;;;;5007894;28;20197;-41
2020/12/20 07:49:08;;;;;;;6.33;5.50;;;11.90;51.90;;;;;;5010229;28;20472;-41
2020/12/20 07:51:34;;;;;;;6.43;5.23;;;11.90;51.90;;;;;;5021144;28;20473;-41
2020/12/20 07:54:01;;;;;;;6.80;5.70;;;11.90;51.90;;;;;;5031643;28;20895;-41
2020/12/20 07:56:38;;;;;;;7.40;5.40;;;11.90;52.00;;;;;;5030714;28;20488;-42
2020/12/20 07:59:05;;;;;;;6.40;5.40;;;11.60;52.30;;;;;;5031324;28;20455;-41
2020/12/20 08:01:31;;;;;;;6.03;5.00;;;11.20;53.30;;;;;;5031020;28;20566;-41
2020/12/20 08:04:01;;;;;;;6.43;5.60;;;11.00;54.30;;;;;;5031500;28;20420;-42
2020/12/20 08:06:27;;;;;;;5.87;5.37;;;11.00;54.40;;;;;;5030496;28;20927;-41
2020/12/20 08:08:52;;;;;;;5.37;4.87;;;11.10;54.20;;;;;;5015113;28;20652;-41
2020/12/20 08:11:26;;;;;;;5.30;4.80;;;11.40;53.90;;;;;;5011243;28;20421;-41
2020/12/20 08:14:12;;;;;;;5.90;5.20;;;11.10;53.70;;;;;;5010326;28;20197;-41
2020/12/20 08:16:41;;;;;;;7.13;4.60;;;10.90;54.50;;;;;;5010466;28;20515;-41
2020/12/20 08:19:21;;;;;;;5.90;5.17;;;10.90;54.80;;;;;;5011609;28;20516;-41
2020/12/20 08:22:05;;;;;;;6.20;5.50;;;11.10;54.90;;;;;;5011140;28;20531;-41
2020/12/20 08:24:32;;;;;;;7.70;5.13;;;11.20;54.30;;;;;;5011566;28;20876;-41
2020/12/20 08:27:00;;;;;;;5.43;4.43;;;11.20;54.30;;;;;;5010300;28;20451;-41
2020/12/20 08:29:26;;;;;;;6.63;5.17;;;11.00;54.30;;;;;;5011243;28;20429;-41
2020/12/20 08:31:51;;;;;;;5.90;4.90;;;10.90;54.90;;;;;;5010799;28;20975;-42
2020/12/20 08:34:23;;;;;;;5.63;5.13;;;10.90;55.00;;;;;;5011483;28;20240;-41
2020/12/20 08:36:52;;;;;;;7.40;5.60;;;11.00;54.70;;;;;;5010339;28;20305;-41
2020/12/20 08:39:24;;;;;;;7.00;4.70;;;11.30;54.30;;;;;;5009687;28;20435;-41
2020/12/20 08:42:03;;;;;;;5.67;5.17;;;11.30;54.10;;;;;;5010894;28;20439;-41
2020/12/20 08:44:29;;;;;;;6.50;5.43;;;11.20;54.30;;;;;;5011130;28;20916;-41
2020/12/20 08:47:09;;;;;;;6.00;5.40;;;11.30;54.20;;;;;;5009947;28;20512;-41
2020/12/20 08:49:36;;;;;;;7.17;5.37;;;11.40;54.20;;;;;;5010839;28;20456;-41
2020/12/20 08:52:14;;;;;;;7.33;5.93;;;11.60;54.00;;;;;;5010763;28;20797;-41
2020/12/20 08:54:41;;;;;;;14.10;5.60;;;11.80;53.60;;;;;;5010970;28;20812;-41
2020/12/20 08:57:10;;;;;;;5.73;5.23;;;12.00;53.10;;;;;;5010425;28;20451;-41
2020/12/20 08:59:40;;;;;;;6.27;5.50;;;12.10;52.80;;;;;;5011293;28;20436;-41
2020/12/20 09:02:08;;;;;;;6.33;5.10;;;12.20;52.50;;;;;;5010423;28;20512;-41
2020/12/20 09:04:36;;;;;;;9.73;5.40;;;12.40;52.40;;;;;;5014373;28;20432;-41
2020/12/20 09:07:07;;;;;;;11.00;5.93;;;12.40;52.40;;;;;;5012094;28;20424;-41
2020/12/20 09:09:34;;;;;;;7.07;5.97;;;12.50;52.10;;;;;;5015070;28;20456;-41
2020/12/20 09:12:17;;;;;;;6.33;5.73;;;12.70;51.90;;;;;;5014277;28;20440;-42
2020/12/20 09:14:59;;;;;;;6.50;5.90;;;12.80;51.50;;;;;;5014479;28;21034;-41
2020/12/20 09:17:36;;;;;;;5.53;5.00;;;12.70;51.60;;;;;;5014387;28;20440;-41
2020/12/20 09:20:04;;;;;;;6.00;5.40;;;12.50;52.00;;;;;;5014684;28;20443;-41
2020/12/20 09:22:44;;;;;;;6.20;5.53;;;12.70;52.10;;;;;;5014285;28;20811;-41
2020/12/20 09:25:12;;;;;;;6.63;5.60;;;12.60;52.10;;;;;;5014411;28;20436;-41
2020/12/20 09:27:38;;;;;;;6.30;5.50;;;12.50;52.40;;;;;;5014119;28;20498;-41
2020/12/20 09:30:05;;;;;;;5.80;5.17;;;12.60;52.30;;;;;;5014558;28;20511;-41
2020/12/20 09:32:40;;;;;;;6.47;5.87;;;12.70;52.00;;;;;;5012294;28;20428;-41
2020/12/20 09:35:09;;;;;;;5.70;5.10;;;12.90;51.60;;;;;;5014018;28;20507;-41
2020/12/20 09:37:41;;;;;;;6.07;5.53;;;13.10;51.50;;;;;;5013658;28;20432;-41
2020/12/20 09:40:08;;;;;;;7.00;5.83;;;13.40;51.60;;;;;;5014282;28;20416;-41
2020/12/20 09:42:42;;;;;;;7.57;6.70;;;13.60;50.50;;;;;;5013739;28;20456;-41
2020/12/20 09:45:09;;;;;;;6.60;6.00;;;13.50;50.40;;;;;;5013842;28;20432;-41
2020/12/20 09:47:39;;;;;;;7.73;5.73;;;13.60;50.40;;;;;;5013222;28;20460;-41
2020/12/20 09:50:06;;;;;;;6.50;5.90;;;13.60;49.90;;;;;;5008028;28;20428;-42
2020/12/20 09:52:33;;;;;;;6.90;6.10;;;13.70;50.00;;;;;;5013546;28;20432;-42
2020/12/20 09:54:59;;;;;;;6.63;5.87;;;13.80;50.00;;;;;;5013702;28;20904;-41
2020/12/20 09:57:25;;;;;;;7.40;6.33;;;14.00;49.50;;;;;;5013719;28;20429;-41
2020/12/20 09:59:51;;;;;;;6.37;5.77;;;14.40;49.10;;;;;;5012681;28;20425;-41
2020/12/20 10:02:16;;;;;;;7.83;6.00;;;14.70;48.60;;;;;;5013522;28;20425;-41
2020/12/20 10:04:42;;;;;;;7.10;5.77;;;15.00;47.60;;;;;;5014181;28;20280;-41
2020/12/20 10:07:07;;;;;;;6.03;5.40;;;15.00;47.20;;;;;;5012925;28;20193;-41
2020/12/20 10:09:33;;;;;;;6.40;5.80;;;14.90;47.50;;;;;;5013935;28;20649;-41
2020/12/20 10:11:58;;;;;;;6.43;5.43;;;14.70;47.60;;;;;;5013318;28;20234;-41
2020/12/20 10:14:24;;;;;;;6.73;5.97;;;14.80;47.80;;;;;;5013505;28;20228;-41
2020/12/20 10:16:55;;;;;;;8.37;6.80;;;14.80;48.00;;;;;;5012598;28;20233;-42
2020/12/20 10:19:21;;;;;;;7.50;6.57;;;14.90;47.90;;;;;;5013824;28;20198;-42
2020/12/20 10:21:50;;;;;;;7.83;7.13;;;14.90;47.50;;;;;;5013382;28;20861;-42
2020/12/20 10:24:17;;;;;;;6.63;6.03;;;15.00;47.60;;;;;;5014239;28;20198;-42
2020/12/20 10:26:46;;;;;;;6.17;5.57;;;15.00;47.60;;;;;;5010910;28;20433;-41
2020/12/20 10:29:15;;;;;;;6.53;5.73;;;15.20;47.30;;;;;;5013671;28;20421;-41
2020/12/20 10:31:45;;;;;;;7.43;5.70;;;15.30;46.90;;;;;;5012941;28;20437;-41
2020/12/20 10:34:11;;;;;;;7.03;6.33;;;15.00;46.90;;;;;;5013379;28;20428;-42
2020/12/20 10:36:37;;;;;;;6.77;6.17;;;15.00;47.20;;;;;;5012231;28;20492;-41
2020/12/20 10:39:05;;;;;;;7.10;6.40;;;15.10;47.30;;;;;;5013163;28;20980;-41
2020/12/20 10:41:34;;;;;;;8.60;6.37;;;15.20;47.20;;;;;;5012924;28;20854;-42
2020/12/20 10:44:00;;;;;;;7.17;6.47;;;15.00;47.50;;;;;;5013115;28;20425;-42
2020/12/20 10:46:26;;;;;;;7.03;6.27;;;15.00;47.60;;;;;;5012118;28;20431;-41
2020/12/20 10:48:51;;;;;;;10.63;6.70;;;15.20;47.50;;;;;;5012628;28;20488;-41
2020/12/20 10:51:19;;;;;;;7.97;6.73;;;15.30;47.20;;;;;;5012725;28;20190;-41
2020/12/20 10:53:47;;;;;;;8.40;6.70;;;15.40;46.80;;;;;;5011326;28;20206;-41
2020/12/20 10:56:15;;;;;;;7.60;6.60;;;15.40;46.60;;;;;;5011854;28;20503;-41
2020/12/20 10:58:41;;;;;;;7.40;6.60;;;15.30;46.70;;;;;;5012875;28;20435;-41
2020/12/20 11:01:07;;;;;;;7.93;7.00;;;14.80;47.60;;;;;;5012551;28;20567;-41
2020/12/20 11:03:33;;;;;;;9.83;7.30;;;14.80;48.40;;;;;;5012663;28;20516;-42
2020/12/20 11:05:58;;;;;;;8.33;7.30;;;14.80;48.20;;;;;;5012194;28;20194;-41
2020/12/20 11:08:24;;;;;;;10.80;7.67;;;14.70;48.10;;;;;;5012280;28;20218;-41
2020/12/20 11:10:49;;;;;;;7.33;6.73;;;14.70;48.30;;;;;;5012959;28;20213;-41
2020/12/20 11:13:15;;;;;;;6.60;5.80;;;14.50;48.40;;;;;;5012404;28;20244;-42
2020/12/20 11:15:40;;;;;;;6.87;6.17;;;14.40;48.70;;;;;;5012103;28;20221;-41
2020/12/20 11:18:06;;;;;;;7.60;6.57;;;14.40;49.00;;;;;;5011994;28;20194;-41
2020/12/20 11:20:31;;;;;;;8.53;7.60;;;14.70;48.90;;;;;;5011024;28;20198;-41
2020/12/20 11:23:04;;;;;;;8.10;6.63;;;14.70;48.60;;;;;;5011914;28;20232;-41
2020/12/20 11:25:30;;;;;;;7.50;6.53;;;14.50;48.70;;;;;;5011469;28;20659;-41
2020/12/20 11:27:55;;;;;;;7.70;6.83;;;14.50;49.00;;;;;;5011734;28;20512;-42
2020/12/20 11:30:21;;;;;;;7.10;6.20;;;14.70;48.70;;;;;;5012595;28;20244;-41
2020/12/20 11:32:47;;;;;;;7.17;6.47;;;14.70;48.50;;;;;;5011813;28;20637;-41
2020/12/20 11:35:16;;;;;;;8.10;5.80;;;15.00;48.20;;;;;;5011623;28;20308;-41
2020/12/20 11:37:42;;;;;;;8.23;6.43;;;15.20;47.90;;;;;;5011611;28;20936;-41
2020/12/20 11:40:08;;;;;;;10.27;5.83;;;15.50;47.50;;;;;;5012144;28;20777;-41
2020/12/20 11:42:33;;;;;;;9.57;6.90;;;15.60;47.20;;;;;;5011566;28;20480;-41
2020/12/20 11:44:59;;;;;;;6.93;6.20;;;15.70;46.80;;;;;;5011226;28;20244;-41
2020/12/20 11:47:24;;;;;;;8.97;6.83;;;15.70;46.80;;;;;;5010055;28;20198;-41
2020/12/20 11:49:50;;;;;;;9.07;7.87;;;15.60;46.80;;;;;;5005584;28;20822;-41
2020/12/20 11:52:16;;;;;;;9.57;7.87;;;15.40;47.30;;;;;;5011467;28;20272;-41
2020/12/20 11:54:41;;;;;;;8.97;8.00;;;15.50;47.50;;;;;;5011631;28;20201;-41
2020/12/20 11:57:07;;;;;;;8.67;7.87;;;15.70;47.40;;;;;;5011151;28;20638;-41
2020/12/20 11:59:32;;;;;;;8.13;7.33;;;15.70;47.30;;;;;;5011912;28;20198;-41
2020/12/20 12:02:01;;;;;;;8.10;6.80;;;15.70;47.40;;;;;;5011324;28;20237;-41
2020/12/20 12:04:27;;;;;;;7.83;7.00;;;15.80;47.20;;;;;;5010623;28;20248;-41
2020/12/20 12:06:53;;;;;;;8.67;7.07;;;15.80;47.00;;;;;;5010601;28;20797;-41
2020/12/20 12:09:18;;;;;;;7.50;6.17;;;15.90;47.00;;;;;;5011886;28;20425;-42
2020/12/20 12:11:44;;;;;;;6.87;6.27;;;16.10;47.00;;;;;;5010394;28;20202;-41
2020/12/20 12:14:10;;;;;;;8.40;7.47;;;16.20;46.70;;;;;;5010925;28;20198;-41
2020/12/20 12:16:35;;;;;;;6.97;6.20;;;16.20;46.40;;;;;;5010430;28;20311;-41
2020/12/20 12:19:01;;;;;;;8.00;6.80;;;16.30;46.40;;;;;;5011635;28;20205;-41
2020/12/20 12:21:27;;;;;;;8.60;6.73;;;16.10;46.70;;;;;;5010982;28;20186;-41
2020/12/20 12:23:52;;;;;;;8.17;7.30;;;16.10;46.90;;;;;;5011355;28;20209;-42
2020/12/20 12:26:18;;;;;;;7.77;7.07;;;16.20;47.00;;;;;;5010807;28;20196;-41
2020/12/20 12:28:44;;;;;;;9.47;6.97;;;16.30;46.80;;;;;;5011530;28;20202;-41
2020/12/20 12:31:09;;;;;;;8.13;6.47;;;16.20;46.30;;;;;;5010758;28;20197;-41
2020/12/20 12:33:35;;;;;;;8.77;7.87;;;16.30;46.70;;;;;;5011141;28;20439;-41
2020/12/20 12:36:03;;;;;;;7.50;6.80;;;16.40;46.70;;;;;;5010798;28;20689;-41
2020/12/20 12:38:28;;;;;;;8.70;7.60;;;16.50;46.90;;;;;;5009976;28;20451;-41
2020/12/20 12:40:54;;;;;;;6.93;6.30;;;16.60;46.80;;;;;;5010571;28;20515;-41
2020/12/20 12:43:19;;;;;;;8.10;6.93;;;16.70;46.70;;;;;;5010900;28;20530;-41
2020/12/20 12:45:45;;;;;;;9.63;6.40;;;16.70;46.90;;;;;;5010753;28;20308;-41
2020/12/20 12:48:11;;;;;;;7.70;7.00;;;16.80;46.90;;;;;;5007779;28;20712;-42